Bell Plain, Illinois
Current Conditions -  °F | °C
As of 10:35 AM on Friday 19 Dec 2014 (Local Time) from KC75 Reporting Station
Clear Clear  
Wind Chill: 27°   Ceiling: Unl
Heat Index: 27°   Visibility: 10mi
Dew Point: 20°   Wind: 0mph
Humidity: 77%   Direction: NA
Pressure: 30.33"   Gusts: NA
Location:  40.9824°N, 89.2315°W
Report Text: KC75 191635Z AUTO 00000KT 10SM CLR M03/M06 A3033 RMK AO2 T10291064
Loading
Personal Weather Stations






























Interactive Weather Map New forecast layout! Learn more

10-Day Weather Forecast

Advertisements
Track Severe Weather on mobile